Terminal Aerodrome Forecast
Issued by NWS Albuquerque, NM

Home | Current Version | Previous Version | Text Only | Print | Product List | Glossary On
Versions: 1 2 3 4 5 6 7 8 9 10 11 12 13 14 15 16
000
FTUS45 KABQ 022334
TAFABQ
TAF
KABQ 022334Z 0300/0324 22010KT P6SM VCTS BKN100CB
      TEMPO 0300/0301 VRB17G28KT
     FM030200 33008KT P6SM BKN120
     FM030900 VRB05KT P6SM BKN120
     FM032000 23010KT P6SM SCT070 BKN150
     FM032300 23013KT P6SM VCTS SCT070CB BKN110=

USA.gov is the U.S. government's official web portal to all federal, state and local government web resources and services.